sensor_id;sensor_type;location;lat;lon;timestamp;pressure;altitude;pressure_sealevel;temperature;humidity
77165;BME280;66140;50.280;18.660;2023-02-21T05:02:59;98480.72;;;6.64;100.00
77165;BME280;66140;50.280;18.660;2023-02-21T05:05:25;98478.16;;;6.62;99.65
77165;BME280;66140;50.280;18.660;2023-02-21T05:07:50;98470.53;;;6.58;99.63
77165;BME280;66140;50.280;18.660;2023-02-21T05:10:16;98478.34;;;6.59;100.00
77165;BME280;66140;50.280;18.660;2023-02-21T05:12:42;98492.28;;;6.61;100.00
77165;BME280;66140;50.280;18.660;2023-02-21T05:15:09;98497.53;;;6.61;100.00
77165;BME280;66140;50.280;18.660;2023-02-21T05:17:35;98485.22;;;6.62;99.97
77165;BME280;66140;50.280;18.660;2023-02-21T05:20:00;98497.75;;;6.58;99.98
77165;BME280;66140;50.280;18.660;2023-02-21T05:22:26;98495.19;;;6.57;100.00
77165;BME280;66140;50.280;18.660;2023-02-21T05:24:51;98489.13;;;6.55;100.00
77165;BME280;66140;50.280;18.660;2023-02-21T05:27:19;98494.06;;;6.61;100.00
77165;BME280;66140;50.280;18.660;2023-02-21T05:29:46;98490.91;;;6.54;100.00
77165;BME280;66140;50.280;18.660;2023-02-21T05:32:13;98501.47;;;6.54;100.00
77165;BME280;66140;50.280;18.660;2023-02-21T05:34:38;98493.56;;;6.54;100.00
77165;BME280;66140;50.280;18.660;2023-02-21T05:37:09;98508.28;;;6.58;100.00
77165;BME280;66140;50.280;18.660;2023-02-21T05:39:34;98503.00;;;6.58;100.00
77165;BME280;66140;50.280;18.660;2023-02-21T05:42:00;98492.81;;;6.52;100.00
77165;BME280;66140;50.280;18.660;2023-02-21T05:44:25;98488.72;;;6.47;100.00
77165;BME280;66140;50.280;18.660;2023-02-21T05:46:50;98493.84;;;6.50;100.00
77165;BME280;66140;50.280;18.660;2023-02-21T05:49:16;98499.75;;;6.53;100.00
77165;BME280;66140;50.280;18.660;2023-02-21T05:51:42;98480.16;;;6.43;100.00
77165;BME280;66140;50.280;18.660;2023-02-21T05:54:15;98495.69;;;6.48;100.00
77165;BME280;66140;50.280;18.660;2023-02-21T05:56:42;98518.81;;;6.58;100.00
77165;BME280;66140;50.280;18.660;2023-02-21T05:59:08;98497.91;;;6.55;100.00
77165;BME280;66140;50.280;18.660;2023-02-21T06:01:46;98489.13;;;6.55;100.00
77165;BME280;66140;50.280;18.660;2023-02-21T06:04:12;98490.91;;;6.54;100.00
77165;BME280;66140;50.280;18.660;2023-02-21T06:06:42;98496.19;;;6.54;100.00
77165;BME280;66140;50.280;18.660;2023-02-21T06:09:12;98503.00;;;6.58;100.00
77165;BME280;66140;50.280;18.660;2023-02-21T06:11:38;98491.13;;;6.51;100.00
77165;BME280;66140;50.280;18.660;2023-02-21T06:14:15;98503.25;;;6.54;100.00
77165;BME280;66140;50.280;18.660;2023-02-21T06:16:41;98501.38;;;6.56;100.00
77165;BME280;66140;50.280;18.660;2023-02-21T06:19:08;98504.09;;;6.54;100.00
77165;BME280;66140;50.280;18.660;2023-02-21T06:21:33;98496.38;;;6.51;100.00
77165;BME280;66140;50.280;18.660;2023-02-21T06:24:01;98506.72;;;6.54;100.00
77165;BME280;66140;50.280;18.660;2023-02-21T06:26:32;98507.78;;;6.52;100.00
77165;BME280;66140;50.280;18.660;2023-02-21T06:29:03;98517.28;;;6.54;100.00
77165;BME280;66140;50.280;18.660;2023-02-21T06:31:29;98500.72;;;6.52;100.00
77165;BME280;66140;50.280;18.660;2023-02-21T06:33:56;98518.81;;;6.58;100.00
77165;BME280;66140;50.280;18.660;2023-02-21T06:36:24;98515.06;;;6.62;100.00
77165;BME280;66140;50.280;18.660;2023-02-21T06:38:52;98523.47;;;6.69;100.00
77165;BME280;66140;50.280;18.660;2023-02-21T06:41:22;98527.13;;;6.66;100.00
77165;BME280;66140;50.280;18.660;2023-02-21T06:43:49;98513.34;;;6.61;100.00
77165;BME280;66140;50.280;18.660;2023-02-21T06:46:26;98530.19;;;6.74;100.00
77165;BME280;66140;50.280;18.660;2023-02-21T06:48:57;98511.13;;;6.69;100.00
77165;BME280;66140;50.280;18.660;2023-02-21T06:51:42;98527.53;;;6.74;100.00
77165;BME280;66140;50.280;18.660;2023-02-21T06:54:14;98525.09;;;6.71;100.00
77165;BME280;66140;50.280;18.660;2023-02-21T06:56:49;98539.00;;;6.89;100.00
77165;BME280;66140;50.280;18.660;2023-02-21T06:59:15;98528.53;;;6.88;100.00
77165;BME280;66140;50.280;18.660;2023-02-21T07:01:40;98537.94;;;6.92;100.00
77165;BME280;66140;50.280;18.660;2023-02-21T07:04:39;98533.53;;;6.92;100.00
77165;BME280;66140;50.280;18.660;2023-02-21T07:08:04;98529.47;;;6.87;99.48
77165;BME280;66140;50.280;18.660;2023-02-21T07:11:19;98543.06;;;6.95;100.00
77165;BME280;66140;50.280;18.660;2023-02-21T07:39:55;98547.09;;;7.16;98.31
77165;BME280;66140;50.280;18.660;2023-02-21T07:42:20;98557.09;;;7.25;97.91
77165;BME280;66140;50.280;18.660;2023-02-21T07:44:46;98545.16;;;7.34;97.65
77165;BME280;66140;50.280;18.660;2023-02-21T07:47:12;98566.88;;;7.53;98.12
77165;BME280;66140;50.280;18.660;2023-02-21T07:49:38;98555.94;;;7.59;96.83
77165;BME280;66140;50.280;18.660;2023-02-21T07:52:04;98565.09;;;7.68;96.63
77165;BME280;66140;50.280;18.660;2023-02-21T07:54:30;98560.19;;;7.61;95.90
77165;BME280;66140;50.280;18.660;2023-02-21T07:57:01;98556.31;;;7.53;97.21
77165;BME280;66140;50.280;18.660;2023-02-21T07:59:29;98564.78;;;7.58;96.61
77165;BME280;66140;50.280;18.660;2023-02-21T08:01:55;98559.81;;;7.68;96.70
77165;BME280;66140;50.280;18.660;2023-02-21T08:04:20;98546.69;;;7.66;96.70
77165;BME280;66140;50.280;18.660;2023-02-21T08:06:48;98557.25;;;7.66;96.73
77165;BME280;66140;50.280;18.660;2023-02-21T08:09:14;98562.66;;;7.79;97.04
77165;BME280;66140;50.280;18.660;2023-02-21T08:11:42;98553.59;;;7.83;95.71
77165;BME280;66140;50.280;18.660;2023-02-21T08:14:08;98548.31;;;7.83;95.49
77165;BME280;66140;50.280;18.660;2023-02-21T08:16:33;98562.75;;;7.91;95.16
77165;BME280;66140;50.280;18.660;2023-02-21T08:18:59;98569.44;;;7.97;95.48
77165;BME280;66140;50.280;18.660;2023-02-21T08:21:24;98555.38;;;7.96;95.51
77165;BME280;66140;50.280;18.660;2023-02-21T08:23:53;98559.44;;;8.02;94.87
77165;BME280;66140;50.280;18.660;2023-02-21T08:26:19;98561.44;;;8.13;93.94
77165;BME280;66140;50.280;18.660;2023-02-21T08:28:45;98568.97;;;8.33;93.34
77165;BME280;66140;50.280;18.660;2023-02-21T08:31:10;98571.22;;;8.39;93.29
77165;BME280;66140;50.280;18.660;2023-02-21T08:33:36;98567.94;;;8.35;93.80
77165;BME280;66140;50.280;18.660;2023-02-21T08:36:02;98570.38;;;8.38;93.22
77165;BME280;66140;50.280;18.660;2023-02-21T08:38:27;98567.13;;;8.48;92.64
77165;BME280;66140;50.280;18.660;2023-02-21T08:40:53;98563.19;;;8.40;92.89
77165;BME280;66140;50.280;18.660;2023-02-21T08:43:18;98571.56;;;8.47;92.47
77165;BME280;66140;50.280;18.660;2023-02-21T08:45:44;98580.19;;;8.51;92.10
77165;BME280;66140;50.280;18.660;2023-02-21T08:48:09;98582.16;;;8.47;92.15
77165;BME280;66140;50.280;18.660;2023-02-21T08:50:36;98580.06;;;8.52;92.52
77165;BME280;66140;50.280;18.660;2023-02-21T08:53:02;98570.34;;;8.53;91.79
77165;BME280;66140;50.280;18.660;2023-02-21T08:55:27;98597.69;;;8.66;91.43
77165;BME280;66140;50.280;18.660;2023-02-21T08:57:53;98595.81;;;8.68;91.58
77165;BME280;66140;50.280;18.660;2023-02-21T09:00:21;98583.84;;;8.62;90.63
77165;BME280;66140;50.280;18.660;2023-02-21T09:02:55;98588.41;;;8.73;90.94
77165;BME280;66140;50.280;18.660;2023-02-21T09:05:22;98591.44;;;8.81;90.78
77165;BME280;66140;50.280;18.660;2023-02-21T09:07:51;98587.22;;;8.91;90.80
77165;BME280;66140;50.280;18.660;2023-02-21T09:10:24;98588.34;;;9.01;90.37
77165;BME280;66140;50.280;18.660;2023-02-21T09:12:49;98574.78;;;9.06;88.99
77165;BME280;66140;50.280;18.660;2023-02-21T09:15:15;98584.13;;;9.11;89.05
77165;BME280;66140;50.280;18.660;2023-02-21T09:17:41;98582.63;;;9.07;88.76
77165;BME280;66140;50.280;18.660;2023-02-21T09:20:09;98591.56;;;8.92;89.14
77165;BME280;66140;50.280;18.660;2023-02-21T09:22:35;98595.91;;;8.93;89.77
77165;BME280;66140;50.280;18.660;2023-02-21T09:25:01;98586.78;;;8.84;89.44
77165;BME280;66140;50.280;18.660;2023-02-21T09:27:29;98595.41;;;9.01;89.78
77165;BME280;66140;50.280;18.660;2023-02-21T09:30:10;98593.53;;;9.15;88.76
77165;BME280;66140;50.280;18.660;2023-02-21T09:32:37;98605.84;;;9.16;89.35
77165;BME280;66140;50.280;18.660;2023-02-21T09:35:03;98596.50;;;9.11;88.67
77165;BME280;66140;50.280;18.660;2023-02-21T09:37:29;98605.34;;;8.97;88.28
77165;BME280;66140;50.280;18.660;2023-02-21T09:39:54;98609.91;;;8.95;89.53
77165;BME280;66140;50.280;18.660;2023-02-21T09:42:24;98598.03;;;8.88;90.43
77165;BME280;66140;50.280;18.660;2023-02-21T09:44:52;98606.81;;;8.89;89.77
77165;BME280;66140;50.280;18.660;2023-02-21T09:47:25;98608.25;;;8.80;89.04
77165;BME280;66140;50.280;18.660;2023-02-21T09:50:06;98598.59;;;8.79;88.75
77165;BME280;66140;50.280;18.660;2023-02-21T09:52:37;98598.66;;;8.92;88.75
77165;BME280;66140;50.280;18.660;2023-02-21T09:57:36;98601.22;;;8.93;88.71
77165;BME280;66140;50.280;18.660;2023-02-21T10:00:50;98598.88;;;8.89;89.76
77165;BME280;66140;50.280;18.660;2023-02-21T10:09:17;98620.31;;;8.84;88.78
77165;BME280;66140;50.280;18.660;2023-02-21T10:11:58;98603.50;;;8.85;89.72
77165;BME280;66140;50.280;18.660;2023-02-21T10:17:22;98613.13;;;8.86;90.95
77165;BME280;66140;50.280;18.660;2023-02-21T10:20:13;98617.66;;;8.84;90.79
77165;BME280;66140;50.280;18.660;2023-02-21T10:26:08;98614.97;;;9.25;89.72
77165;BME280;66140;50.280;18.660;2023-02-21T10:28:38;98632.06;;;9.34;88.39
77165;BME280;66140;50.280;18.660;2023-02-21T10:31:39;98621.88;;;9.28;89.04
77165;BME280;66140;50.280;18.660;2023-02-21T10:34:21;98621.66;;;9.31;88.40
77165;BME280;66140;50.280;18.660;2023-02-21T10:36:53;98619.41;;;9.24;88.83
77165;BME280;66140;50.280;18.660;2023-02-21T10:39:33;98626.09;;;9.30;88.88
77165;BME280;66140;50.280;18.660;2023-02-21T10:42:03;98615.44;;;9.44;88.15
77165;BME280;66140;50.280;18.660;2023-02-21T10:44:31;98630.94;;;9.63;87.28
77165;BME280;66140;50.280;18.660;2023-02-21T10:47:37;98603.63;;;9.75;86.72
77165;BME280;66140;50.280;18.660;2023-02-21T10:49:59;98617.97;;;9.98;84.31
77165;BME280;66140;50.280;18.660;2023-02-21T10:52:25;98612.22;;;10.04;85.01
77165;BME280;66140;50.280;18.660;2023-02-21T10:55:17;98626.84;;;10.10;83.70
77165;BME280;66140;50.280;18.660;2023-02-21T10:57:44;98630.47;;;10.09;83.29
77165;BME280;66140;50.280;18.660;2023-02-21T11:00:41;98629.81;;;10.05;83.55
77165;BME280;66140;50.280;18.660;2023-02-21T11:03:22;98643.19;;;10.03;84.07
77165;BME280;66140;50.280;18.660;2023-02-21T11:05:53;98631.94;;;9.87;84.11
77165;BME280;66140;50.280;18.660;2023-02-21T11:08:37;98628.75;;;9.82;83.94
77165;BME280;66140;50.280;18.660;2023-02-21T11:11:04;98642.09;;;9.81;83.25
77165;BME280;66140;50.280;18.660;2023-02-21T11:13:31;98646.53;;;9.80;83.74
77165;BME280;66140;50.280;18.660;2023-02-21T11:16:15;98643.38;;;9.75;84.09
77165;BME280;66140;50.280;18.660;2023-02-21T11:18:41;98645.06;;;9.76;84.89
77165;BME280;66140;50.280;18.660;2023-02-21T11:21:13;98642.94;;;9.81;85.09
77165;BME280;66140;50.280;18.660;2023-02-21T11:23:57;98631.94;;;10.00;83.04
77165;BME280;66140;50.280;18.660;2023-02-21T11:26:34;98637.66;;;10.06;82.85
77165;BME280;66140;50.280;18.660;2023-02-21T11:29:13;98652.56;;;10.22;83.06
77165;BME280;66140;50.280;18.660;2023-02-21T11:31:41;98645.09;;;10.14;82.48
77165;BME280;66140;50.280;18.660;2023-02-21T11:34:09;98652.41;;;10.11;81.62
77165;BME280;66140;50.280;18.660;2023-02-21T11:36:45;98642.13;;;10.06;82.60
77165;BME280;66140;50.280;18.660;2023-02-21T11:39:25;98639.78;;;10.14;81.91
77165;BME280;66140;50.280;18.660;2023-02-21T11:42:00;98653.72;;;10.43;81.23
77165;BME280;66140;50.280;18.660;2023-02-21T11:47:13;98646.25;;;10.61;79.35
77165;BME280;66140;50.280;18.660;2023-02-21T11:52:31;98626.34;;;10.79;78.56
77165;BME280;66140;50.280;18.660;2023-02-21T11:54:59;98632.13;;;10.97;78.15
77165;BME280;66140;50.280;18.660;2023-02-21T12:19:32;98648.28;;;10.32;75.89
77165;BME280;66140;50.280;18.660;2023-02-21T12:24:41;98650.31;;;10.28;77.02
77165;BME280;66140;50.280;18.660;2023-02-21T12:32:47;98659.56;;;9.58;82.06
77165;BME280;66140;50.280;18.660;2023-02-21T12:35:38;98668.06;;;9.36;84.62
77165;BME280;66140;50.280;18.660;2023-02-21T12:38:13;98673.56;;;9.06;87.67
77165;BME280;66140;50.280;18.660;2023-02-21T12:46:55;98672.28;;;8.71;90.47
77165;BME280;66140;50.280;18.660;2023-02-21T12:49:43;98677.03;;;8.66;90.46
77165;BME280;66140;50.280;18.660;2023-02-21T12:52:17;98675.16;;;8.68;92.04
77165;BME280;66140;50.280;18.660;2023-02-21T12:57:36;98667.97;;;8.70;90.74
77165;BME280;66140;50.280;18.660;2023-02-21T13:00:04;98659.66;;;8.76;89.97
77165;BME280;66140;50.280;18.660;2023-02-21T13:08:50;98633.72;;;8.95;90.01
77165;BME280;66140;50.280;18.660;2023-02-21T13:11:23;98649.75;;;9.06;89.02
77165;BME280;66140;50.280;18.660;2023-02-21T13:13:50;98629.59;;;9.04;88.72
77165;BME280;66140;50.280;18.660;2023-02-21T13:16:16;98636.19;;;9.11;89.30
77165;BME280;66140;50.280;18.660;2023-02-21T13:18:52;98628.06;;;9.14;89.09
77165;BME280;66140;50.280;18.660;2023-02-21T13:24:14;98641.41;;;9.39;88.64
77165;BME280;66140;50.280;18.660;2023-02-21T13:29:23;98631.00;;;9.36;85.84
77165;BME280;66140;50.280;18.660;2023-02-21T13:31:55;98649.88;;;9.44;86.56
77165;BME280;66140;50.280;18.660;2023-02-21T13:34:25;98652.63;;;9.43;85.49
77165;BME280;66140;50.280;18.660;2023-02-21T13:36:52;98645.31;;;9.34;85.26
77165;BME280;66140;50.280;18.660;2023-02-21T13:39:20;98657.28;;;9.12;88.21
77165;BME280;66140;50.280;18.660;2023-02-21T13:42:03;98641.66;;;8.95;88.65
77165;BME280;66140;50.280;18.660;2023-02-21T13:44:36;98657.53;;;8.95;88.58
77165;BME280;66140;50.280;18.660;2023-02-21T13:47:14;98655.09;;;8.78;88.81
77165;BME280;66140;50.280;18.660;2023-02-21T13:52:22;98658.47;;;8.94;88.52
77165;BME280;66140;50.280;18.660;2023-02-21T13:57:39;98657.19;;;9.14;86.50
77165;BME280;66140;50.280;18.660;2023-02-21T14:08:12;98661.38;;;9.31;86.16
77165;BME280;66140;50.280;18.660;2023-02-21T14:24:12;98668.81;;;9.38;85.47
77165;BME280;66140;50.280;18.660;2023-02-21T14:37:37;98656.91;;;9.58;83.05
77165;BME280;66140;50.280;18.660;2023-02-21T14:47:40;98650.06;;;9.41;81.05
77165;BME280;66140;50.280;18.660;2023-02-21T15:01:09;98676.34;;;9.44;81.51
77165;BME280;66140;50.280;18.660;2023-02-21T15:03:53;98675.09;;;9.50;81.05
77165;BME280;66140;50.280;18.660;2023-02-21T15:06:25;98669.47;;;9.54;80.64
77165;BME280;66140;50.280;18.660;2023-02-21T15:08:52;98673.75;;;9.57;80.63
77165;BME280;66140;50.280;18.660;2023-02-21T15:11:25;98679.13;;;9.55;80.98
77165;BME280;66140;50.280;18.660;2023-02-21T15:16:49;98681.88;;;9.54;81.04
77165;BME280;66140;50.280;18.660;2023-02-21T15:24:36;98673.56;;;9.60;80.91
77165;BME280;66140;50.280;18.660;2023-02-21T15:27:12;98679.22;;;9.54;80.74
77165;BME280;66140;50.280;18.660;2023-02-21T15:29:39;98681.66;;;9.44;80.46
77165;BME280;66140;50.280;18.660;2023-02-21T15:32:05;98694.53;;;9.36;80.85
77165;BME280;66140;50.280;18.660;2023-02-21T15:34:38;98691.16;;;9.34;79.71
77165;BME280;66140;50.280;18.660;2023-02-21T15:39:49;98697.84;;;9.13;79.94
77165;BME280;66140;50.280;18.660;2023-02-21T15:42:17;98694.06;;;9.03;79.11
77165;BME280;66140;50.280;18.660;2023-02-21T15:44:59;98713.25;;;9.06;80.49
77165;BME280;66140;50.280;18.660;2023-02-21T15:47:27;98703.63;;;8.91;80.45
77165;BME280;66140;50.280;18.660;2023-02-21T15:50:13;98709.31;;;8.85;80.87
77165;BME280;66140;50.280;18.660;2023-02-21T15:52:46;98717.34;;;8.83;81.12
77165;BME280;66140;50.280;18.660;2023-02-21T15:55:32;98704.63;;;8.76;81.35
77165;BME280;66140;50.280;18.660;2023-02-21T16:00:36;98720.88;;;8.70;81.01
77165;BME280;66140;50.280;18.660;2023-02-21T16:03:25;98725.97;;;8.73;81.66
77165;BME280;66140;50.280;18.660;2023-02-21T16:05:50;98727.56;;;8.61;81.51
77165;BME280;66140;50.280;18.660;2023-02-21T16:08:16;98720.09;;;8.54;82.42
77165;BME280;66140;50.280;18.660;2023-02-21T16:10:43;98728.81;;;8.56;81.66
77165;BME280;66140;50.280;18.660;2023-02-21T16:13:09;98736.75;;;8.56;82.19
77165;BME280;66140;50.280;18.660;2023-02-21T16:15:36;98736.34;;;8.48;83.29
77165;BME280;66140;50.280;18.660;2023-02-21T16:18:10;98736.34;;;8.33;83.20
77165;BME280;66140;50.280;18.660;2023-02-21T16:20:41;98732.16;;;8.29;83.70
77165;BME280;66140;50.280;18.660;2023-02-21T16:28:34;98744.22;;;8.19;85.14
77165;BME280;66140;50.280;18.660;2023-02-21T16:31:02;98752.16;;;8.19;84.93
77165;BME280;66140;50.280;18.660;2023-02-21T16:33:30;98767.81;;;8.22;85.06
77165;BME280;66140;50.280;18.660;2023-02-21T16:35:56;98744.41;;;8.16;84.62
77165;BME280;66140;50.280;18.660;2023-02-21T16:38:24;98750.25;;;8.21;85.53
77165;BME280;66140;50.280;18.660;2023-02-21T16:40:50;98748.38;;;8.23;84.73
77165;BME280;66140;50.280;18.660;2023-02-21T16:43:21;98757.25;;;8.22;84.59
77165;BME280;66140;50.280;18.660;2023-02-21T16:45:48;98756.84;;;8.14;85.11
77165;BME280;66140;50.280;18.660;2023-02-21T16:48:19;98750.63;;;8.15;85.10
77165;BME280;66140;50.280;18.660;2023-02-21T16:50:47;98760.19;;;8.18;85.12
77165;BME280;66140;50.280;18.660;2023-02-21T16:53:13;98774.25;;;8.18;84.43
77165;BME280;66140;50.280;18.660;2023-02-21T16:55:39;98776.47;;;8.10;84.62
77165;BME280;66140;50.280;18.660;2023-02-21T16:58:27;98786.84;;;7.99;84.93
77165;BME280;66140;50.280;18.660;2023-02-21T17:00:56;98768.28;;;7.85;85.02
77165;BME280;66140;50.280;18.660;2023-02-21T17:03:22;98786.84;;;7.83;85.43
77165;BME280;66140;50.280;18.660;2023-02-21T17:05:50;98796.56;;;7.83;85.67
77165;BME280;66140;50.280;18.660;2023-02-21T17:08:17;98794.28;;;7.77;86.77
77165;BME280;66140;50.280;18.660;2023-02-21T17:10:42;98793.50;;;7.75;86.73
77165;BME280;66140;50.280;18.660;2023-02-21T17:13:08;98812.59;;;7.80;86.00
77165;BME280;66140;50.280;18.660;2023-02-21T17:15:33;98793.50;;;7.75;86.24
77165;BME280;66140;50.280;18.660;2023-02-21T17:17:59;98802.41;;;7.74;87.19
77165;BME280;66140;50.280;18.660;2023-02-21T17:20:25;98814.38;;;7.79;86.63
77165;BME280;66140;50.280;18.660;2023-02-21T17:22:51;98805.78;;;7.76;87.01
77165;BME280;66140;50.280;18.660;2023-02-21T17:25:19;98812.13;;;7.87;86.35
77165;BME280;66140;50.280;18.660;2023-02-21T17:27:45;98811.31;;;7.87;86.12
77165;BME280;66140;50.280;18.660;2023-02-21T17:30:11;98813.75;;;7.90;86.63
77165;BME280;66140;50.280;18.660;2023-02-21T17:32:37;98813.69;;;7.91;86.33
77165;BME280;66140;50.280;18.660;2023-02-21T17:35:03;98803.56;;;7.84;87.06
77165;BME280;66140;50.280;18.660;2023-02-21T17:37:29;98807.97;;;7.83;87.17
77165;BME280;66140;50.280;18.660;2023-02-21T17:39:55;98812.41;;;7.83;87.08
77165;BME280;66140;50.280;18.660;2023-02-21T17:42:21;98806.56;;;7.78;86.80
77165;BME280;66140;50.280;18.660;2023-02-21T17:44:47;98813.88;;;7.73;87.34
77165;BME280;66140;50.280;18.660;2023-02-21T17:47:14;98816.88;;;7.67;87.16
77165;BME280;66140;50.280;18.660;2023-02-21T17:49:42;98822.31;;;7.63;87.30
77165;BME280;66140;50.280;18.660;2023-02-21T17:52:07;98827.44;;;7.67;86.96
77165;BME280;66140;50.280;18.660;2023-02-21T17:54:32;98815.31;;;7.62;87.62
77165;BME280;66140;50.280;18.660;2023-02-21T17:56:58;98817.03;;;7.63;87.65
77165;BME280;66140;50.280;18.660;2023-02-21T17:59:23;98808.19;;;7.64;86.89
77165;BME280;66140;50.280;18.660;2023-02-21T18:01:52;98821.38;;;7.64;87.03
77165;BME280;66140;50.280;18.660;2023-02-21T18:04:18;98824.97;;;7.63;87.91
77165;BME280;66140;50.280;18.660;2023-02-21T18:06:43;98828.78;;;7.58;87.03
77165;BME280;66140;50.280;18.660;2023-02-21T18:09:09;98822.00;;;7.54;87.64
77165;BME280;66140;50.280;18.660;2023-02-21T18:11:39;98819.44;;;7.52;88.11
77165;BME280;66140;50.280;18.660;2023-02-21T18:14:04;98834.16;;;7.56;87.81
77165;BME280;66140;50.280;18.660;2023-02-21T18:16:30;98831.84;;;7.50;88.18
77165;BME280;66140;50.280;18.660;2023-02-21T18:18:56;98839.03;;;7.48;88.34
77165;BME280;66140;50.280;18.660;2023-02-21T18:21:21;98833.56;;;7.51;89.35
77165;BME280;66140;50.280;18.660;2023-02-21T18:23:48;98844.13;;;7.51;88.05
77165;BME280;66140;50.280;18.660;2023-02-21T18:26:14;98838.34;;;7.45;88.01
77165;BME280;66140;50.280;18.660;2023-02-21T18:28:40;98838.34;;;7.45;88.08
77165;BME280;66140;50.280;18.660;2023-02-21T18:31:05;98838.53;;;7.42;87.84
77165;BME280;66140;50.280;18.660;2023-02-21T18:33:35;98830.50;;;7.43;87.60
77165;BME280;66140;50.280;18.660;2023-02-21T18:36:00;98850.53;;;7.47;88.13
77165;BME280;66140;50.280;18.660;2023-02-21T18:38:44;98847.69;;;7.50;87.96
77165;BME280;66140;50.280;18.660;2023-02-21T18:41:20;98842.00;;;7.42;87.81
77165;BME280;66140;50.280;18.660;2023-02-21T18:43:48;98837.41;;;7.46;87.13
77165;BME280;66140;50.280;18.660;2023-02-21T18:46:15;98852.31;;;7.47;87.65
77165;BME280;66140;50.280;18.660;2023-02-21T18:48:46;98848.97;;;7.43;87.41
77165;BME280;66140;50.280;18.660;2023-02-21T18:51:13;98874.03;;;7.52;87.67
77165;BME280;66140;50.280;18.660;2023-02-21T18:53:44;98868.66;;;7.53;87.45
77165;BME280;66140;50.280;18.660;2023-02-21T18:56:11;98887.41;;;7.64;86.27
77165;BME280;66140;50.280;18.660;2023-02-21T18:58:40;98894.88;;;7.56;85.25
77165;BME280;66140;50.280;18.660;2023-02-21T19:01:07;98895.41;;;7.63;80.34
77165;BME280;66140;50.280;18.660;2023-02-21T19:03:33;98887.72;;;7.58;76.93
77165;BME280;66140;50.280;18.660;2023-02-21T19:05:59;98901.34;;;7.51;76.49
77165;BME280;66140;50.280;18.660;2023-02-21T19:08:25;98890.59;;;7.38;75.69
77165;BME280;66140;50.280;18.660;2023-02-21T19:10:50;98901.00;;;7.41;74.33
77165;BME280;66140;50.280;18.660;2023-02-21T19:13:16;98910.78;;;7.39;73.60
77165;BME280;66140;50.280;18.660;2023-02-21T19:15:42;98924.13;;;7.36;73.31
77165;BME280;66140;50.280;18.660;2023-02-21T19:18:08;98913.31;;;7.25;74.16
77165;BME280;66140;50.280;18.660;2023-02-21T19:20:33;98912.38;;;7.10;74.28
77165;BME280;66140;50.280;18.660;2023-02-21T19:22:59;98922.44;;;7.02;74.98
77165;BME280;66140;50.280;18.660;2023-02-21T19:25:24;98920.22;;;6.95;74.25
77165;BME280;66140;50.280;18.660;2023-02-21T19:27:52;98932.00;;;6.88;75.36
77165;BME280;66140;50.280;18.660;2023-02-21T19:30:28;98937.78;;;6.78;75.73
77165;BME280;66140;50.280;18.660;2023-02-21T19:32:58;98947.22;;;6.65;75.88
77165;BME280;66140;50.280;18.660;2023-02-21T19:35:28;98952.81;;;6.59;76.52
77165;BME280;66140;50.280;18.660;2023-02-21T19:37:55;98957.59;;;6.51;77.36
77165;BME280;66140;50.280;18.660;2023-02-21T19:40:21;98940.44;;;6.42;77.08
77165;BME280;66140;50.280;18.660;2023-02-21T19:42:47;98944.88;;;6.42;77.12
77165;BME280;66140;50.280;18.660;2023-02-21T19:45:17;98943.63;;;6.32;77.65
77165;BME280;66140;50.280;18.660;2023-02-21T19:47:43;98950.69;;;6.31;77.45
77165;BME280;66140;50.280;18.660;2023-02-21T19:50:10;98956.31;;;6.24;77.73
77165;BME280;66140;50.280;18.660;2023-02-21T19:52:36;98947.91;;;6.16;78.37
77165;BME280;66140;50.280;18.660;2023-02-21T19:55:02;98957.53;;;6.17;78.13
77165;BME280;66140;50.280;18.660;2023-02-21T19:57:28;98965.59;;;6.14;78.28
77165;BME280;66140;50.280;18.660;2023-02-21T19:59:53;98952.22;;;5.99;78.75
77165;BME280;66140;50.280;18.660;2023-02-21T20:02:19;98961.97;;;5.97;78.97
77165;BME280;66140;50.280;18.660;2023-02-21T20:04:45;98967.00;;;5.83;79.58
77165;BME280;66140;50.280;18.660;2023-02-21T20:07:14;98982.59;;;5.69;80.38
77165;BME280;66140;50.280;18.660;2023-02-21T20:09:39;98973.56;;;5.56;81.67
77165;BME280;66140;50.280;18.660;2023-02-21T20:12:05;98987.41;;;5.41;82.41
77165;BME280;66140;50.280;18.660;2023-02-21T20:14:30;98987.88;;;5.30;82.78
77165;BME280;66140;50.280;18.660;2023-02-21T20:16:56;98992.69;;;5.20;82.98
77165;BME280;66140;50.280;18.660;2023-02-21T20:19:23;98981.78;;;5.09;83.89
77165;BME280;66140;50.280;18.660;2023-02-21T20:21:49;98988.22;;;5.02;84.72
77165;BME280;66140;50.280;18.660;2023-02-21T20:24:18;98986.19;;;4.89;85.14
77165;BME280;66140;50.280;18.660;2023-02-21T20:26:51;98991.75;;;4.81;85.26
77165;BME280;66140;50.280;18.660;2023-02-21T20:29:17;98982.41;;;4.74;85.46
77165;BME280;66140;50.280;18.660;2023-02-21T20:47:15;98996.91;;;4.20;87.59
77165;BME280;66140;50.280;18.660;2023-02-21T20:49:44;99007.53;;;4.17;87.98
77165;BME280;66140;50.280;18.660;2023-02-21T20:52:10;99005.28;;;4.08;88.29
77165;BME280;66140;50.280;18.660;2023-02-21T20:54:35;99011.69;;;4.01;88.34
77165;BME280;66140;50.280;18.660;2023-02-21T20:57:01;99006.91;;;3.89;88.66
77165;BME280;66140;50.280;18.660;2023-02-21T20:59:30;99011.34;;;3.87;89.15
77165;BME280;66140;50.280;18.660;2023-02-21T21:01:56;99028.69;;;3.91;89.54
77165;BME280;66140;50.280;18.660;2023-02-21T21:04:27;99020.75;;;3.92;89.96
77165;BME280;66140;50.280;18.660;2023-02-21T21:06:56;99011.25;;;3.90;90.03
77165;BME280;66140;50.280;18.660;2023-02-21T21:09:22;99007.00;;;3.86;90.07
77165;BME280;66140;50.280;18.660;2023-02-21T21:15:07;99018.56;;;3.82;89.57
77165;BME280;66140;50.280;18.660;2023-02-21T21:17:34;99024.03;;;3.76;89.96
77165;BME280;66140;50.280;18.660;2023-02-21T21:20:00;99016.41;;;3.70;90.27
77165;BME280;66140;50.280;18.660;2023-02-21T21:22:26;99024.34;;;3.67;89.67
77165;BME280;66140;50.280;18.660;2023-02-21T21:24:53;99024.72;;;3.57;90.05